sensor_id;sensor_type;location;lat;lon;timestamp;P1;durP1;ratioP1;P2;durP2;ratioP2
13327;SDS011;6733;51.044;3.746;2023-03-26T00:01:06;22.13;;;6.23;;
13327;SDS011;6733;51.044;3.746;2023-03-26T00:03:34;20.47;;;6.20;;
13327;SDS011;6733;51.044;3.746;2023-03-26T00:06:09;26.13;;;6.37;;
13327;SDS011;6733;51.044;3.746;2023-03-26T00:08:37;24.60;;;6.20;;
13327;SDS011;6733;51.044;3.746;2023-03-26T00:11:06;21.23;;;5.53;;
13327;SDS011;6733;51.044;3.746;2023-03-26T00:13:34;29.37;;;6.37;;
13327;SDS011;6733;51.044;3.746;2023-03-26T00:16:00;25.13;;;6.00;;
13327;SDS011;6733;51.044;3.746;2023-03-26T00:18:28;24.20;;;6.47;;
13327;SDS011;6733;51.044;3.746;2023-03-26T00:20:56;17.07;;;5.50;;
13327;SDS011;6733;51.044;3.746;2023-03-26T00:23:24;29.83;;;6.37;;
13327;SDS011;6733;51.044;3.746;2023-03-26T00:25:51;21.67;;;6.17;;
13327;SDS011;6733;51.044;3.746;2023-03-26T00:28:18;21.73;;;6.07;;
13327;SDS011;6733;51.044;3.746;2023-03-26T00:30:47;18.03;;;5.20;;
13327;SDS011;6733;51.044;3.746;2023-03-26T00:33:15;21.20;;;5.73;;
13327;SDS011;6733;51.044;3.746;2023-03-26T00:35:42;20.17;;;5.33;;
13327;SDS011;6733;51.044;3.746;2023-03-26T00:38:14;21.80;;;5.40;;
13327;SDS011;6733;51.044;3.746;2023-03-26T00:40:42;31.90;;;6.17;;
13327;SDS011;6733;51.044;3.746;2023-03-26T00:43:12;23.80;;;6.60;;
13327;SDS011;6733;51.044;3.746;2023-03-26T00:45:49;19.73;;;5.57;;
13327;SDS011;6733;51.044;3.746;2023-03-26T00:48:17;17.00;;;5.40;;
13327;SDS011;6733;51.044;3.746;2023-03-26T00:50:44;17.13;;;4.83;;
13327;SDS011;6733;51.044;3.746;2023-03-26T00:53:11;16.00;;;5.23;;
13327;SDS011;6733;51.044;3.746;2023-03-26T00:55:42;16.17;;;4.70;;
13327;SDS011;6733;51.044;3.746;2023-03-26T00:58:09;16.27;;;5.30;;
13327;SDS011;6733;51.044;3.746;2023-03-26T01:00:38;18.80;;;5.10;;
13327;SDS011;6733;51.044;3.746;2023-03-26T01:03:13;16.93;;;4.97;;
13327;SDS011;6733;51.044;3.746;2023-03-26T01:05:43;20.70;;;5.13;;
13327;SDS011;6733;51.044;3.746;2023-03-26T01:08:32;17.63;;;5.20;;
13327;SDS011;6733;51.044;3.746;2023-03-26T01:11:23;14.67;;;5.00;;
13327;SDS011;6733;51.044;3.746;2023-03-26T01:14:04;16.13;;;5.17;;
13327;SDS011;6733;51.044;3.746;2023-03-26T01:16:34;17.77;;;5.20;;
13327;SDS011;6733;51.044;3.746;2023-03-26T01:22:17;15.43;;;4.87;;
13327;SDS011;6733;51.044;3.746;2023-03-26T01:24:45;14.60;;;5.20;;
13327;SDS011;6733;51.044;3.746;2023-03-26T01:30:16;16.23;;;5.87;;
13327;SDS011;6733;51.044;3.746;2023-03-26T01:32:57;22.60;;;5.73;;
13327;SDS011;6733;51.044;3.746;2023-03-26T01:40:36;15.77;;;4.97;;
13327;SDS011;6733;51.044;3.746;2023-03-26T01:45:53;20.60;;;6.10;;
13327;SDS011;6733;51.044;3.746;2023-03-26T01:48:29;17.67;;;6.20;;
13327;SDS011;6733;51.044;3.746;2023-03-26T01:50:58;21.07;;;6.20;;
13327;SDS011;6733;51.044;3.746;2023-03-26T01:53:24;15.60;;;5.57;;
13327;SDS011;6733;51.044;3.746;2023-03-26T01:58:50;16.63;;;5.17;;
13327;SDS011;6733;51.044;3.746;2023-03-26T02:01:29;17.43;;;5.50;;
13327;SDS011;6733;51.044;3.746;2023-03-26T02:04:30;15.10;;;5.60;;
13327;SDS011;6733;51.044;3.746;2023-03-26T02:07:20;17.23;;;5.43;;
13327;SDS011;6733;51.044;3.746;2023-03-26T02:10:08;16.07;;;5.43;;
13327;SDS011;6733;51.044;3.746;2023-03-26T02:12:40;19.43;;;5.70;;
13327;SDS011;6733;51.044;3.746;2023-03-26T02:15:07;15.37;;;6.03;;
13327;SDS011;6733;51.044;3.746;2023-03-26T02:17:34;21.03;;;5.57;;
13327;SDS011;6733;51.044;3.746;2023-03-26T02:20:00;15.83;;;5.23;;
13327;SDS011;6733;51.044;3.746;2023-03-26T02:22:30;21.67;;;5.50;;
13327;SDS011;6733;51.044;3.746;2023-03-26T02:24:56;24.60;;;5.97;;
13327;SDS011;6733;51.044;3.746;2023-03-26T02:27:22;19.13;;;5.97;;
13327;SDS011;6733;51.044;3.746;2023-03-26T02:29:48;9.90;;;4.23;;
13327;SDS011;6733;51.044;3.746;2023-03-26T02:36:46;15.83;;;5.13;;
13327;SDS011;6733;51.044;3.746;2023-03-26T02:39:12;14.43;;;4.83;;
13327;SDS011;6733;51.044;3.746;2023-03-26T02:41:38;16.47;;;4.97;;
13327;SDS011;6733;51.044;3.746;2023-03-26T02:44:05;10.53;;;4.53;;
13327;SDS011;6733;51.044;3.746;2023-03-26T02:46:32;21.07;;;4.83;;
13327;SDS011;6733;51.044;3.746;2023-03-26T02:48:58;17.47;;;5.00;;
13327;SDS011;6733;51.044;3.746;2023-03-26T02:51:24;10.90;;;4.40;;
13327;SDS011;6733;51.044;3.746;2023-03-26T02:53:51;20.43;;;5.10;;
13327;SDS011;6733;51.044;3.746;2023-03-26T02:56:18;15.27;;;4.57;;
13327;SDS011;6733;51.044;3.746;2023-03-26T02:58:44;13.77;;;4.77;;
13327;SDS011;6733;51.044;3.746;2023-03-26T03:01:11;11.00;;;4.47;;
13327;SDS011;6733;51.044;3.746;2023-03-26T03:03:37;15.87;;;4.97;;
13327;SDS011;6733;51.044;3.746;2023-03-26T03:06:05;17.57;;;4.70;;
13327;SDS011;6733;51.044;3.746;2023-03-26T03:08:34;16.70;;;4.40;;
13327;SDS011;6733;51.044;3.746;2023-03-26T03:11:01;18.87;;;5.33;;
13327;SDS011;6733;51.044;3.746;2023-03-26T03:13:31;13.50;;;4.43;;
13327;SDS011;6733;51.044;3.746;2023-03-26T03:15:57;17.60;;;5.00;;
13327;SDS011;6733;51.044;3.746;2023-03-26T03:18:24;16.80;;;5.80;;
13327;SDS011;6733;51.044;3.746;2023-03-26T03:20:50;15.10;;;5.27;;
13327;SDS011;6733;51.044;3.746;2023-03-26T03:23:18;11.57;;;4.20;;
13327;SDS011;6733;51.044;3.746;2023-03-26T03:25:45;16.23;;;4.57;;
13327;SDS011;6733;51.044;3.746;2023-03-26T03:28:11;13.77;;;4.60;;
13327;SDS011;6733;51.044;3.746;2023-03-26T03:30:38;14.87;;;4.20;;
13327;SDS011;6733;51.044;3.746;2023-03-26T03:33:05;11.30;;;4.27;;
13327;SDS011;6733;51.044;3.746;2023-03-26T03:35:31;15.63;;;4.90;;
13327;SDS011;6733;51.044;3.746;2023-03-26T03:37:58;11.73;;;4.27;;
13327;SDS011;6733;51.044;3.746;2023-03-26T03:40:25;18.40;;;5.23;;
13327;SDS011;6733;51.044;3.746;2023-03-26T03:42:51;15.77;;;4.87;;
13327;SDS011;6733;51.044;3.746;2023-03-26T03:45:17;16.70;;;4.83;;
13327;SDS011;6733;51.044;3.746;2023-03-26T03:47:44;13.63;;;4.50;;
13327;SDS011;6733;51.044;3.746;2023-03-26T03:50:10;15.67;;;5.13;;
13327;SDS011;6733;51.044;3.746;2023-03-26T03:52:36;9.77;;;3.87;;
13327;SDS011;6733;51.044;3.746;2023-03-26T03:55:03;10.43;;;4.73;;
13327;SDS011;6733;51.044;3.746;2023-03-26T03:57:29;14.40;;;4.60;;
13327;SDS011;6733;51.044;3.746;2023-03-26T03:59:57;9.40;;;3.60;;
13327;SDS011;6733;51.044;3.746;2023-03-26T04:02:24;11.63;;;4.50;;
13327;SDS011;6733;51.044;3.746;2023-03-26T04:04:55;12.70;;;4.63;;
13327;SDS011;6733;51.044;3.746;2023-03-26T04:07:25;15.77;;;4.37;;
13327;SDS011;6733;51.044;3.746;2023-03-26T04:09:52;11.47;;;4.33;;
13327;SDS011;6733;51.044;3.746;2023-03-26T04:12:19;17.33;;;4.63;;
13327;SDS011;6733;51.044;3.746;2023-03-26T04:14:46;17.37;;;4.60;;
13327;SDS011;6733;51.044;3.746;2023-03-26T04:17:12;11.37;;;4.30;;
13327;SDS011;6733;51.044;3.746;2023-03-26T04:19:39;9.33;;;4.47;;
13327;SDS011;6733;51.044;3.746;2023-03-26T04:22:06;16.17;;;4.97;;
13327;SDS011;6733;51.044;3.746;2023-03-26T04:24:36;16.33;;;4.47;;
13327;SDS011;6733;51.044;3.746;2023-03-26T04:27:07;15.93;;;4.73;;
13327;SDS011;6733;51.044;3.746;2023-03-26T04:29:38;10.73;;;4.50;;
13327;SDS011;6733;51.044;3.746;2023-03-26T04:32:14;13.83;;;4.47;;
13327;SDS011;6733;51.044;3.746;2023-03-26T04:34:57;11.93;;;4.33;;
13327;SDS011;6733;51.044;3.746;2023-03-26T04:37:31;12.83;;;5.00;;
13327;SDS011;6733;51.044;3.746;2023-03-26T04:40:05;10.63;;;4.23;;
13327;SDS011;6733;51.044;3.746;2023-03-26T04:42:42;18.13;;;4.60;;
13327;SDS011;6733;51.044;3.746;2023-03-26T04:45:11;15.63;;;4.30;;
13327;SDS011;6733;51.044;3.746;2023-03-26T04:47:39;13.60;;;4.10;;
13327;SDS011;6733;51.044;3.746;2023-03-26T04:50:06;13.33;;;5.07;;
13327;SDS011;6733;51.044;3.746;2023-03-26T04:52:33;10.90;;;4.53;;
13327;SDS011;6733;51.044;3.746;2023-03-26T04:55:00;12.53;;;4.97;;
13327;SDS011;6733;51.044;3.746;2023-03-26T04:57:28;18.33;;;5.77;;
13327;SDS011;6733;51.044;3.746;2023-03-26T05:00:01;18.93;;;5.03;;
13327;SDS011;6733;51.044;3.746;2023-03-26T05:02:40;14.53;;;5.53;;
13327;SDS011;6733;51.044;3.746;2023-03-26T05:05:10;12.90;;;4.50;;
13327;SDS011;6733;51.044;3.746;2023-03-26T05:07:36;15.77;;;4.90;;
13327;SDS011;6733;51.044;3.746;2023-03-26T05:10:03;15.17;;;5.07;;
13327;SDS011;6733;51.044;3.746;2023-03-26T05:12:30;19.20;;;5.33;;
13327;SDS011;6733;51.044;3.746;2023-03-26T05:14:57;17.03;;;4.93;;
13327;SDS011;6733;51.044;3.746;2023-03-26T05:17:24;21.07;;;4.43;;
13327;SDS011;6733;51.044;3.746;2023-03-26T05:19:51;14.70;;;3.93;;
13327;SDS011;6733;51.044;3.746;2023-03-26T05:22:17;14.90;;;4.47;;
13327;SDS011;6733;51.044;3.746;2023-03-26T05:24:44;16.23;;;4.40;;
13327;SDS011;6733;51.044;3.746;2023-03-26T05:27:13;16.40;;;5.60;;
13327;SDS011;6733;51.044;3.746;2023-03-26T05:29:44;16.73;;;4.60;;
13327;SDS011;6733;51.044;3.746;2023-03-26T05:32:11;13.77;;;4.73;;
13327;SDS011;6733;51.044;3.746;2023-03-26T05:34:38;12.87;;;3.97;;
13327;SDS011;6733;51.044;3.746;2023-03-26T05:37:05;8.23;;;3.90;;
13327;SDS011;6733;51.044;3.746;2023-03-26T05:39:34;6.97;;;3.77;;
13327;SDS011;6733;51.044;3.746;2023-03-26T05:42:00;9.23;;;4.17;;
13327;SDS011;6733;51.044;3.746;2023-03-26T05:44:27;7.97;;;3.13;;
13327;SDS011;6733;51.044;3.746;2023-03-26T05:46:53;8.00;;;3.10;;
13327;SDS011;6733;51.044;3.746;2023-03-26T05:49:21;9.40;;;3.50;;
13327;SDS011;6733;51.044;3.746;2023-03-26T05:51:47;6.10;;;3.50;;
13327;SDS011;6733;51.044;3.746;2023-03-26T05:54:13;5.67;;;3.23;;
13327;SDS011;6733;51.044;3.746;2023-03-26T05:56:39;7.23;;;3.27;;
13327;SDS011;6733;51.044;3.746;2023-03-26T05:59:05;10.10;;;3.33;;
13327;SDS011;6733;51.044;3.746;2023-03-26T06:01:32;15.17;;;3.80;;
13327;SDS011;6733;51.044;3.746;2023-03-26T06:03:58;9.87;;;3.80;;
13327;SDS011;6733;51.044;3.746;2023-03-26T06:06:25;10.70;;;3.67;;
13327;SDS011;6733;51.044;3.746;2023-03-26T06:08:51;10.50;;;3.60;;
13327;SDS011;6733;51.044;3.746;2023-03-26T06:11:20;6.73;;;3.70;;
13327;SDS011;6733;51.044;3.746;2023-03-26T06:13:47;9.53;;;3.50;;
13327;SDS011;6733;51.044;3.746;2023-03-26T06:16:13;8.73;;;3.37;;
13327;SDS011;6733;51.044;3.746;2023-03-26T06:18:41;6.70;;;3.40;;
13327;SDS011;6733;51.044;3.746;2023-03-26T06:21:08;5.73;;;3.70;;
13327;SDS011;6733;51.044;3.746;2023-03-26T06:23:34;8.70;;;3.67;;
13327;SDS011;6733;51.044;3.746;2023-03-26T06:26:00;9.87;;;3.60;;
13327;SDS011;6733;51.044;3.746;2023-03-26T06:28:26;8.07;;;3.80;;
13327;SDS011;6733;51.044;3.746;2023-03-26T06:30:52;7.83;;;3.43;;
13327;SDS011;6733;51.044;3.746;2023-03-26T06:33:18;6.63;;;3.10;;
13327;SDS011;6733;51.044;3.746;2023-03-26T06:35:45;6.90;;;2.63;;
13327;SDS011;6733;51.044;3.746;2023-03-26T06:38:11;4.90;;;2.60;;
13327;SDS011;6733;51.044;3.746;2023-03-26T06:40:37;7.20;;;2.40;;
13327;SDS011;6733;51.044;3.746;2023-03-26T06:43:03;5.33;;;2.90;;
13327;SDS011;6733;51.044;3.746;2023-03-26T06:45:31;4.40;;;2.70;;
13327;SDS011;6733;51.044;3.746;2023-03-26T06:48:00;7.37;;;2.40;;
13327;SDS011;6733;51.044;3.746;2023-03-26T06:50:26;5.50;;;2.67;;
13327;SDS011;6733;51.044;3.746;2023-03-26T06:52:53;5.43;;;2.60;;
13327;SDS011;6733;51.044;3.746;2023-03-26T06:55:19;4.43;;;2.30;;
13327;SDS011;6733;51.044;3.746;2023-03-26T06:57:49;6.27;;;2.40;;
13327;SDS011;6733;51.044;3.746;2023-03-26T07:00:17;5.77;;;2.80;;
13327;SDS011;6733;51.044;3.746;2023-03-26T07:02:43;7.70;;;2.97;;
13327;SDS011;6733;51.044;3.746;2023-03-26T07:05:10;5.27;;;2.40;;
13327;SDS011;6733;51.044;3.746;2023-03-26T07:07:36;6.40;;;4.13;;
13327;SDS011;6733;51.044;3.746;2023-03-26T07:10:04;7.67;;;5.83;;
13327;SDS011;6733;51.044;3.746;2023-03-26T07:12:33;6.80;;;3.33;;
13327;SDS011;6733;51.044;3.746;2023-03-26T07:15:00;12.13;;;6.53;;
13327;SDS011;6733;51.044;3.746;2023-03-26T07:17:27;10.27;;;3.30;;
13327;SDS011;6733;51.044;3.746;2023-03-26T07:19:54;9.60;;;4.77;;
13327;SDS011;6733;51.044;3.746;2023-03-26T07:22:21;7.90;;;3.47;;
13327;SDS011;6733;51.044;3.746;2023-03-26T07:24:48;13.67;;;6.70;;
13327;SDS011;6733;51.044;3.746;2023-03-26T07:27:34;10.53;;;5.07;;
13327;SDS011;6733;51.044;3.746;2023-03-26T07:33:00;8.67;;;4.13;;
13327;SDS011;6733;51.044;3.746;2023-03-26T07:35:37;6.53;;;2.70;;
13327;SDS011;6733;51.044;3.746;2023-03-26T07:40:54;3.93;;;2.17;;
13327;SDS011;6733;51.044;3.746;2023-03-26T07:43:29;5.23;;;2.50;;
13327;SDS011;6733;51.044;3.746;2023-03-26T07:46:15;41.43;;;34.27;;
13327;SDS011;6733;51.044;3.746;2023-03-26T07:48:44;17.10;;;11.53;;
13327;SDS011;6733;51.044;3.746;2023-03-26T07:51:14;7.43;;;3.23;;
13327;SDS011;6733;51.044;3.746;2023-03-26T07:53:43;4.57;;;2.27;;
13327;SDS011;6733;51.044;3.746;2023-03-26T07:56:16;5.63;;;2.30;;
13327;SDS011;6733;51.044;3.746;2023-03-26T07:58:48;6.90;;;2.87;;
13327;SDS011;6733;51.044;3.746;2023-03-26T08:04:40;5.47;;;3.27;;
13327;SDS011;6733;51.044;3.746;2023-03-26T08:13:13;6.43;;;3.60;;
13327;SDS011;6733;51.044;3.746;2023-03-26T08:16:02;7.33;;;2.20;;
13327;SDS011;6733;51.044;3.746;2023-03-26T08:18:55;5.00;;;2.53;;
13327;SDS011;6733;51.044;3.746;2023-03-26T08:21:54;5.30;;;2.83;;
13327;SDS011;6733;51.044;3.746;2023-03-26T08:24:33;7.43;;;2.93;;
13327;SDS011;6733;51.044;3.746;2023-03-26T08:29:50;4.60;;;2.67;;
13327;SDS011;6733;51.044;3.746;2023-03-26T08:32:34;5.33;;;2.80;;
13327;SDS011;6733;51.044;3.746;2023-03-26T08:35:00;15.07;;;10.13;;
13327;SDS011;6733;51.044;3.746;2023-03-26T08:37:29;24.67;;;18.13;;
13327;SDS011;6733;51.044;3.746;2023-03-26T08:39:56;9.60;;;4.40;;
13327;SDS011;6733;51.044;3.746;2023-03-26T09:01:24;5.37;;;3.07;;
13327;SDS011;6733;51.044;3.746;2023-03-26T09:09:43;5.37;;;2.20;;
13327;SDS011;6733;51.044;3.746;2023-03-26T09:18:10;5.27;;;2.20;;
13327;SDS011;6733;51.044;3.746;2023-03-26T09:32:20;5.47;;;2.20;;
13327;SDS011;6733;51.044;3.746;2023-03-26T09:40:23;3.63;;;2.50;;
13327;SDS011;6733;51.044;3.746;2023-03-26T09:48:34;6.37;;;3.80;;
13327;SDS011;6733;51.044;3.746;2023-03-26T09:57:06;4.00;;;2.50;;
13327;SDS011;6733;51.044;3.746;2023-03-26T09:59:50;7.10;;;2.43;;
13327;SDS011;6733;51.044;3.746;2023-03-26T10:08:34;5.60;;;2.57;;
13327;SDS011;6733;51.044;3.746;2023-03-26T10:19:35;5.57;;;2.30;;
13327;SDS011;6733;51.044;3.746;2023-03-26T10:25:29;3.70;;;2.40;;
13327;SDS011;6733;51.044;3.746;2023-03-26T10:34:03;5.27;;;2.27;;
13327;SDS011;6733;51.044;3.746;2023-03-26T10:37:05;4.00;;;2.77;;
13327;SDS011;6733;51.044;3.746;2023-03-26T10:39:38;5.37;;;3.10;;
13327;SDS011;6733;51.044;3.746;2023-03-26T10:45:17;4.63;;;3.60;;
13327;SDS011;6733;51.044;3.746;2023-03-26T10:53:42;5.83;;;3.17;;
13327;SDS011;6733;51.044;3.746;2023-03-26T10:58:53;4.70;;;2.57;;
13327;SDS011;6733;51.044;3.746;2023-03-26T11:01:31;3.47;;;2.60;;
13327;SDS011;6733;51.044;3.746;2023-03-26T11:12:42;3.13;;;2.30;;
13327;SDS011;6733;51.044;3.746;2023-03-26T11:20:21;4.43;;;1.90;;
13327;SDS011;6733;51.044;3.746;2023-03-26T11:23:05;3.47;;;1.67;;
13327;SDS011;6733;51.044;3.746;2023-03-26T11:28:30;2.93;;;1.70;;
13327;SDS011;6733;51.044;3.746;2023-03-26T11:31:00;4.03;;;2.10;;
13327;SDS011;6733;51.044;3.746;2023-03-26T11:33:36;3.70;;;1.90;;
13327;SDS011;6733;51.044;3.746;2023-03-26T11:36:07;3.53;;;2.10;;
13327;SDS011;6733;51.044;3.746;2023-03-26T11:38:46;2.93;;;1.80;;
13327;SDS011;6733;51.044;3.746;2023-03-26T11:41:15;2.30;;;1.93;;
13327;SDS011;6733;51.044;3.746;2023-03-26T11:43:46;3.30;;;2.10;;
13327;SDS011;6733;51.044;3.746;2023-03-26T11:46:35;4.17;;;1.90;;
13327;SDS011;6733;51.044;3.746;2023-03-26T11:49:07;2.83;;;2.00;;
13327;SDS011;6733;51.044;3.746;2023-03-26T11:51:36;3.97;;;2.10;;
13327;SDS011;6733;51.044;3.746;2023-03-26T11:54:05;3.40;;;2.00;;
13327;SDS011;6733;51.044;3.746;2023-03-26T11:56:48;3.77;;;2.03;;
13327;SDS011;6733;51.044;3.746;2023-03-26T11:59:37;2.23;;;1.80;;
13327;SDS011;6733;51.044;3.746;2023-03-26T12:09:55;4.90;;;2.70;;
13327;SDS011;6733;51.044;3.746;2023-03-26T12:12:33;5.57;;;2.90;;
13327;SDS011;6733;51.044;3.746;2023-03-26T12:15:03;3.67;;;2.90;;
13327;SDS011;6733;51.044;3.746;2023-03-26T12:17:37;4.77;;;2.80;;
13327;SDS011;6733;51.044;3.746;2023-03-26T12:25:24;2.97;;;1.77;;
13327;SDS011;6733;51.044;3.746;2023-03-26T12:27:58;2.40;;;2.00;;
13327;SDS011;6733;51.044;3.746;2023-03-26T12:30:29;3.43;;;2.30;;
13327;SDS011;6733;51.044;3.746;2023-03-26T12:33:00;2.80;;;2.00;;
13327;SDS011;6733;51.044;3.746;2023-03-26T12:35:53;2.73;;;2.00;;
13327;SDS011;6733;51.044;3.746;2023-03-26T12:38:23;3.53;;;1.90;;
13327;SDS011;6733;51.044;3.746;2023-03-26T12:46:20;5.10;;;2.90;;
13327;SDS011;6733;51.044;3.746;2023-03-26T12:48:56;4.80;;;3.10;;
13327;SDS011;6733;51.044;3.746;2023-03-26T13:02:57;3.53;;;2.20;;
13327;SDS011;6733;51.044;3.746;2023-03-26T13:05:31;3.67;;;1.93;;
13327;SDS011;6733;51.044;3.746;2023-03-26T13:13:54;2.47;;;2.00;;
13327;SDS011;6733;51.044;3.746;2023-03-26T13:32:15;6.47;;;3.63;;
13327;SDS011;6733;51.044;3.746;2023-03-26T13:37:26;6.00;;;3.70;;
13327;SDS011;6733;51.044;3.746;2023-03-26T13:45:58;4.87;;;3.20;;
13327;SDS011;6733;51.044;3.746;2023-03-26T13:48:51;4.47;;;3.60;;
13327;SDS011;6733;51.044;3.746;2023-03-26T13:51:34;5.83;;;4.13;;
13327;SDS011;6733;51.044;3.746;2023-03-26T13:54:12;6.80;;;4.30;;
13327;SDS011;6733;51.044;3.746;2023-03-26T13:57:17;5.60;;;4.13;;
13327;SDS011;6733;51.044;3.746;2023-03-26T14:00:04;5.57;;;3.70;;
13327;SDS011;6733;51.044;3.746;2023-03-26T14:05:28;4.37;;;3.87;;
13327;SDS011;6733;51.044;3.746;2023-03-26T14:07:59;6.90;;;3.97;;
13327;SDS011;6733;51.044;3.746;2023-03-26T14:10:39;4.20;;;3.60;;
13327;SDS011;6733;51.044;3.746;2023-03-26T14:15:58;7.93;;;4.93;;
13327;SDS011;6733;51.044;3.746;2023-03-26T14:19:00;6.13;;;4.77;;
13327;SDS011;6733;51.044;3.746;2023-03-26T14:21:49;6.27;;;4.60;;
13327;SDS011;6733;51.044;3.746;2023-03-26T14:24:33;9.03;;;4.73;;
13327;SDS011;6733;51.044;3.746;2023-03-26T14:37:44;4.80;;;4.30;;
13327;SDS011;6733;51.044;3.746;2023-03-26T14:52:51;6.40;;;4.23;;
13327;SDS011;6733;51.044;3.746;2023-03-26T14:54:54;9.00;;;5.47;;
13327;SDS011;6733;51.044;3.746;2023-03-26T14:57:36;8.53;;;6.73;;
13327;SDS011;6733;51.044;3.746;2023-03-26T15:04:20;14.07;;;9.33;;
13327;SDS011;6733;51.044;3.746;2023-03-26T15:13:01;12.33;;;8.93;;
13327;SDS011;6733;51.044;3.746;2023-03-26T15:18:30;13.47;;;8.40;;
13327;SDS011;6733;51.044;3.746;2023-03-26T15:38:16;16.57;;;7.83;;
13327;SDS011;6733;51.044;3.746;2023-03-26T15:41:25;13.90;;;7.13;;
13327;SDS011;6733;51.044;3.746;2023-03-26T15:44:08;10.40;;;6.03;;
13327;SDS011;6733;51.044;3.746;2023-03-26T15:47:51;14.70;;;6.30;;
13327;SDS011;6733;51.044;3.746;2023-03-26T15:50:09;12.33;;;6.23;;
13327;SDS011;6733;51.044;3.746;2023-03-26T15:53:02;17.27;;;6.63;;
13327;SDS011;6733;51.044;3.746;2023-03-26T15:56:19;13.53;;;6.90;;
13327;SDS011;6733;51.044;3.746;2023-03-26T16:04:50;22.57;;;5.07;;
13327;SDS011;6733;51.044;3.746;2023-03-26T16:12:54;10.50;;;4.40;;
13327;SDS011;6733;51.044;3.746;2023-03-26T16:15:39;19.53;;;5.20;;
13327;SDS011;6733;51.044;3.746;2023-03-26T16:26:10;20.17;;;5.63;;
13327;SDS011;6733;51.044;3.746;2023-03-26T16:36:31;9.73;;;4.20;;
13327;SDS011;6733;51.044;3.746;2023-03-26T16:41:32;15.53;;;5.00;;
13327;SDS011;6733;51.044;3.746;2023-03-26T17:04:31;15.47;;;3.87;;
13327;SDS011;6733;51.044;3.746;2023-03-26T17:10:00;13.73;;;3.60;;
13327;SDS011;6733;51.044;3.746;2023-03-26T17:12:39;12.50;;;4.40;;
13327;SDS011;6733;51.044;3.746;2023-03-26T17:18:20;12.80;;;4.20;;
13327;SDS011;6733;51.044;3.746;2023-03-26T17:36:58;10.47;;;3.80;;
13327;SDS011;6733;51.044;3.746;2023-03-26T17:45:01;15.40;;;4.00;;
13327;SDS011;6733;51.044;3.746;2023-03-26T17:50:24;13.07;;;3.77;;
13327;SDS011;6733;51.044;3.746;2023-03-26T17:53:03;12.27;;;4.67;;
13327;SDS011;6733;51.044;3.746;2023-03-26T17:55:38;18.27;;;3.90;;
13327;SDS011;6733;51.044;3.746;2023-03-26T17:58:19;11.27;;;4.50;;
13327;SDS011;6733;51.044;3.746;2023-03-26T18:03:41;10.70;;;3.20;;
13327;SDS011;6733;51.044;3.746;2023-03-26T18:06:19;17.80;;;4.57;;
13327;SDS011;6733;51.044;3.746;2023-03-26T18:16:55;11.00;;;3.37;;
13327;SDS011;6733;51.044;3.746;2023-03-26T18:19:24;10.20;;;3.70;;
13327;SDS011;6733;51.044;3.746;2023-03-26T18:21:52;14.87;;;4.17;;
13327;SDS011;6733;51.044;3.746;2023-03-26T18:24:29;12.67;;;3.97;;
13327;SDS011;6733;51.044;3.746;2023-03-26T18:27:05;15.57;;;4.33;;
13327;SDS011;6733;51.044;3.746;2023-03-26T18:29:35;17.77;;;4.10;;
13327;SDS011;6733;51.044;3.746;2023-03-26T18:32:14;9.60;;;4.47;;
13327;SDS011;6733;51.044;3.746;2023-03-26T18:34:52;10.13;;;4.40;;
13327;SDS011;6733;51.044;3.746;2023-03-26T18:37:27;11.30;;;3.40;;
13327;SDS011;6733;51.044;3.746;2023-03-26T18:39:59;10.63;;;3.67;;
13327;SDS011;6733;51.044;3.746;2023-03-26T18:42:34;12.30;;;3.57;;
13327;SDS011;6733;51.044;3.746;2023-03-26T18:45:05;13.10;;;3.97;;
13327;SDS011;6733;51.044;3.746;2023-03-26T18:47:42;11.67;;;4.03;;
13327;SDS011;6733;51.044;3.746;2023-03-26T18:50:13;11.23;;;3.30;;
13327;SDS011;6733;51.044;3.746;2023-03-26T18:52:42;12.50;;;3.53;;
13327;SDS011;6733;51.044;3.746;2023-03-26T18:55:10;12.47;;;3.47;;
13327;SDS011;6733;51.044;3.746;2023-03-26T18:57:39;14.83;;;3.80;;
13327;SDS011;6733;51.044;3.746;2023-03-26T19:00:14;13.87;;;3.20;;
13327;SDS011;6733;51.044;3.746;2023-03-26T19:02:46;12.57;;;4.00;;
13327;SDS011;6733;51.044;3.746;2023-03-26T19:05:15;10.10;;;3.00;;
13327;SDS011;6733;51.044;3.746;2023-03-26T19:07:43;13.33;;;3.67;;
13327;SDS011;6733;51.044;3.746;2023-03-26T19:10:14;14.63;;;3.27;;
13327;SDS011;6733;51.044;3.746;2023-03-26T19:12:43;10.87;;;3.13;;
13327;SDS011;6733;51.044;3.746;2023-03-26T19:15:12;11.00;;;3.03;;
13327;SDS011;6733;51.044;3.746;2023-03-26T19:17:48;9.10;;;3.63;;
13327;SDS011;6733;51.044;3.746;2023-03-26T19:20:19;12.43;;;3.17;;
13327;SDS011;6733;51.044;3.746;2023-03-26T19:22:51;15.13;;;3.70;;
13327;SDS011;6733;51.044;3.746;2023-03-26T19:25:19;16.03;;;3.70;;
13327;SDS011;6733;51.044;3.746;2023-03-26T19:27:54;6.33;;;2.70;;
13327;SDS011;6733;51.044;3.746;2023-03-26T19:30:34;7.87;;;2.93;;
13327;SDS011;6733;51.044;3.746;2023-03-26T19:33:16;10.77;;;3.27;;
13327;SDS011;6733;51.044;3.746;2023-03-26T19:35:45;8.20;;;2.73;;
13327;SDS011;6733;51.044;3.746;2023-03-26T19:38:22;10.07;;;3.00;;
13327;SDS011;6733;51.044;3.746;2023-03-26T19:40:54;10.90;;;3.30;;
13327;SDS011;6733;51.044;3.746;2023-03-26T19:43:22;9.03;;;3.17;;
13327;SDS011;6733;51.044;3.746;2023-03-26T19:45:50;13.80;;;3.70;;
13327;SDS011;6733;51.044;3.746;2023-03-26T19:48:18;11.03;;;3.70;;
13327;SDS011;6733;51.044;3.746;2023-03-26T19:50:58;9.10;;;3.47;;
13327;SDS011;6733;51.044;3.746;2023-03-26T19:53:33;6.63;;;3.10;;
13327;SDS011;6733;51.044;3.746;2023-03-26T19:58:34;10.90;;;3.07;;
13327;SDS011;6733;51.044;3.746;2023-03-26T20:01:01;7.77;;;2.93;;
13327;SDS011;6733;51.044;3.746;2023-03-26T20:03:34;10.27;;;2.80;;
13327;SDS011;6733;51.044;3.746;2023-03-26T20:06:05;8.13;;;3.00;;
13327;SDS011;6733;51.044;3.746;2023-03-26T20:08:43;10.33;;;3.00;;
13327;SDS011;6733;51.044;3.746;2023-03-26T20:11:14;9.33;;;3.20;;
13327;SDS011;6733;51.044;3.746;2023-03-26T20:13:44;9.87;;;3.20;;
13327;SDS011;6733;51.044;3.746;2023-03-26T20:16:17;11.70;;;3.70;;
13327;SDS011;6733;51.044;3.746;2023-03-26T20:18:51;8.63;;;3.00;;
13327;SDS011;6733;51.044;3.746;2023-03-26T20:21:22;13.87;;;3.23;;
13327;SDS011;6733;51.044;3.746;2023-03-26T20:23:50;7.93;;;2.87;;
13327;SDS011;6733;51.044;3.746;2023-03-26T20:26:18;8.53;;;3.23;;
13327;SDS011;6733;51.044;3.746;2023-03-26T20:28:45;11.90;;;3.77;;
13327;SDS011;6733;51.044;3.746;2023-03-26T20:31:19;6.57;;;2.83;;
13327;SDS011;6733;51.044;3.746;2023-03-26T20:33:48;7.47;;;2.87;;
13327;SDS011;6733;51.044;3.746;2023-03-26T20:36:15;11.43;;;2.77;;
13327;SDS011;6733;51.044;3.746;2023-03-26T20:38:42;8.33;;;2.40;;
13327;SDS011;6733;51.044;3.746;2023-03-26T20:41:11;5.57;;;2.80;;
13327;SDS011;6733;51.044;3.746;2023-03-26T20:43:39;12.20;;;2.80;;
13327;SDS011;6733;51.044;3.746;2023-03-26T20:46:05;10.73;;;2.63;;
13327;SDS011;6733;51.044;3.746;2023-03-26T20:48:33;8.47;;;2.37;;
13327;SDS011;6733;51.044;3.746;2023-03-26T20:51:00;11.87;;;3.10;;
13327;SDS011;6733;51.044;3.746;2023-03-26T20:53:26;9.70;;;2.87;;
13327;SDS011;6733;51.044;3.746;2023-03-26T20:55:52;7.00;;;3.17;;
13327;SDS011;6733;51.044;3.746;2023-03-26T20:58:19;9.27;;;2.83;;
13327;SDS011;6733;51.044;3.746;2023-03-26T21:00:48;8.07;;;2.87;;
13327;SDS011;6733;51.044;3.746;2023-03-26T21:03:16;7.93;;;2.80;;
13327;SDS011;6733;51.044;3.746;2023-03-26T21:05:43;7.20;;;2.70;;
13327;SDS011;6733;51.044;3.746;2023-03-26T21:08:16;7.47;;;2.63;;
13327;SDS011;6733;51.044;3.746;2023-03-26T21:10:44;9.80;;;2.83;;
13327;SDS011;6733;51.044;3.746;2023-03-26T21:16:01;6.23;;;2.70;;
13327;SDS011;6733;51.044;3.746;2023-03-26T21:18:27;6.80;;;2.80;;
13327;SDS011;6733;51.044;3.746;2023-03-26T21:20:59;7.20;;;2.70;;
13327;SDS011;6733;51.044;3.746;2023-03-26T21:23:36;6.20;;;2.47;;
13327;SDS011;6733;51.044;3.746;2023-03-26T21:28:55;7.87;;;2.90;;
13327;SDS011;6733;51.044;3.746;2023-03-26T21:31:21;9.37;;;2.87;;